Timeline UpdatesTrip UpdatesNews PostsPvt PostsTravel TipsAdmin PostsConv PostsFollowed PostsChat RequestsBlog PostsPNR Posts

Disclaimer
Search
 
 
Mon Jul 28, 2014 17:51:54 ISTHomeTrainsΣChainsAtlasPNRForumGalleryNewsFAQTripsMembersLoginFeedback
No Recent News for this Train
Other Trains in the News **new
Latest...
Temporary Augmentation of 1 SL coach from 5/4/14-28/6/14 #1043381
Wed Apr 02, 2014 (11:23PM)
⇐ Return Journey: Train# 15905

15906/Dibrugarh - Kanyakumari Vivek Express

Jul 19 (8:50PM)
Change Departure Station:
Change Arrival Station:
Post a Train Travel TipPost a Train Travel Tip **new
Post a Comment/Question/Picture/VideoPost a Comment/Question/Picture/Video
Inaugural Run
Sat Nov 26, 2011
Pantry/Catering
✓ Pantry Car Avbl
✓ Catering Avbl
Loco/Rake Reversals
DGR/Durgapur (5); VSKP/Visakhapatnam Junction (8);
RSA - Rake Sharing
Rake/Coach Composition
LOCO-SLR-GS-GS-GS-B2-B1-A1-S9-PC-S8-S7-S6-S5-S4-S3-S2-S1-GS-GS-GS-SLR
Loco
Official Loco Links:- DBRG - DGR :- WDM-3A /3D DGR...
Read more...
- VSKP :- WAM-4/WAP-4 VSKP - CAPE :- WAM-4/WAP-4
News    PNR    Forum    Time-Table    Availability    Fare Chart    Map    Arr/Dep History    Trips    Gallery    ΣChains    X/O    Timeline    
Travel Time: 26h 20m    18 halts    Distance: 1377 km    Avg Speed: 52 km/hr
Type: Mail/Express
Zone: NFR/Northeast Frontier
Departs @ 07:40 (Avg 1h 5m late)
Platform# ???
  T    
Vijayawada Junction/BZA 
Arrives @ 10:00 +1 night (Avg 38m late)
Platform# ???
   W   
Kanniyakumari/CAPE 

18 halts. 224 intermediate Stations between Vijayawada Junction and Kanniyakumari

Show ALL intermediate Stations  Show Old Time-Table

#CodeStation NameX/OArrivesAvgDepartsAvgHaltPFDay#KmSpeedElevZoneAddress
1DBRGDibrugarh (4)  -23:45+1311-2858.542108mNFRDibrugarh 786003, Assam
2NTSKNew Tinsukia Junction (3)  00:45+900:55+1210m--2-2816.555124mNFRDist: Tinsukia, Assam
3MXNMariani Junction (4)  03:45+1603:55+1410m12-2659.948117mNFRDist. Jorhat Pin-785634, Assam
4FKGFurkating Junction (2)  04:43+604:45+62m--2-2621.860 NFRK B Rd, Assam
5DMVDimapur (3)  05:55+906:00+165m--2-2551.662153mNFRDimapur, Nagaland
6DPUDiphu (2)  06:36+2306:37+261m--2-2514.422180mNFRDiphu, Assam
7LMGLumding Junction (5)  08:05+008:10+45m--2-2482.249142mNFRLumding, Assam
8JIDJagi Road (2)  10:41+710:42+91m--2-2358.54462mNFRJagiroad, Assam
9GHYGuwahati (7)  12:00+212:15+315m--2-2301.57360mNFRGuwahati, Assam
10GLPTGoalpara Town (2)  14:02+3914:04+392m--2-2170.93149mNFRGoalpara Town Rail Station, Assam
11NBQNew Bongaigaon Junction (4)X  15:45-115:50+05m--2-2119.55858mNFR783381., Assam
12KOJKokrajhar (3)  16:19+2016:20+231m--2-2091.67046mNFR03661-270618, Assam
13APDJAlipur Duar Junction (3)  17:30+2917:35+315m--2-2010.44053mNFRDist - Alipurduar, West Bengal
14NJPNew Jalpaiguri Junction (8)X  21:45+3522:00+4015m32-1841.979114mNFRCity-Siliguri . Dist-Jalpaiguri, West Bengal
15KNEKishanGanj (3)X  23:06+5523:08+552m--2-1754.65252mNFRKishanganj, Bihar
16MLDTMalda Town (5)X  02:00+5402:15+5015m--3-1606.55030mERDist - Malda, West Bengal
17RPHRampurhat (3)  04:45+5304:50+525m13-1482.64741mERDIST - Birbhum, West Bengal
18UDLAndal Junction (6)  07:00-07:02-2m--3-1381.53186mERAndal, West Bengal
19DGRDurgapur (5)XO07:35+5208:00+4225m13-1364.44671mERDurgapur, West Bengal
20ASNAsansol Junction (7)  08:55+3409:05+3510m43-1322.045113mERDist - bardhaman, West Bengal
21ADRAAdra Junction (4)  10:00+3910:05+405m43-1280.571190mSERDist - Puruliya, West Bengal
22BQABankura Junction (3)X  10:50+3410:52+352m--3-1227.69389mSERDist - Bankura, West Bengal
23MDNMidnapore (3)  11:58+4212:00+422m--3-1125.11553mSERMedinipur, West Bengal
24HIJHijli (2)  12:56+1912:57+231m33-1111.38548mSERdist - paschim medinipur, West Bengal
25BLSBalasore (4)  14:16+1014:18+92m33-999.26919mSERBalasore, Odisha
26BHCBhadrak (4)  15:12+5215:14+522m--3-936.79023mECoRBhadrak, Odisha
27CTCCuttack Junction (5)  16:31+1:1316:33+1:192m--3-821.04228mECoRCuttack, Odisha
28BBSBhubaneswar (4)X  17:13+1:2317:18+1:235m43-793.25240mECoRBhubaneshwar, Odisha
29KURKhurda Road Junction (7)X  17:40+1:3017:55+1:3015m--3-774.27725mECoRKhordha, Odisha
30BAMBrahmapur (3)X  19:50+1:4319:55+1:435m23-627.12827mECoRBerhampur, Odisha
31PSAPalasa (3)X  22:33+2422:35+242m--3-552.87731mECoRKasibugga, Andhra Pradesh
32CHESrikakulam Road (4)  23:32+2923:34+312m--3-479.87434mECoRsrikakulam road ph .no. 08942-287222, Andhra Pradesh
33VZMVizianagaram Junction (5)X  00:30+3100:32+322m--4-410.26363mECoRVizianagaram, Andhra Pradesh
34VSKPVisakhapatnam Junction (8)X01:30+4001:50+3820m34-349.13511mECoRVishakhapatnam 530001, Andhra Pradesh
35DVDDuvvada (4)  02:18+3802:20+382m--4-332.89346mECoRVishakhapatnam District, Andhra Pradesh
36SLOSamalkot Junction (3)  03:46+1:1203:47+1:131m34-199.56118mSCRSamalkot, Andhra Pradesh
37RJYRajahmundry (3)  04:36+1:1704:38+1:182m14-149.36723mSCRRajahmundry ph.no. 0883-2420541, Andhra Pradesh
38EEEluru (3)X  05:59+1:1006:00+1:101m--4-59.44519mSCREluru Ph.no. 08812 226401., Andhra Pradesh
39BZA»Vijayawada Junction (10)»X  07:20+1:0807:40+1:0520m--40.07724mSCRVijayawada 520001, Andhra Pradesh
40OGLOngole (3)  09:28+1:2309:29+1:241m34138.310812mSCROngole, Andhra Pradesh
41NLRNellore (4)  10:34+1910:35+191m34255.03421mSCRNellore, Andhra Pradesh
42RURenigunta Junction (5)X  14:10+3614:20+4010m--4376.969113mSCRChittoor District, Andhra Pradesh
43KPDKatpadi Junction (5)  16:08+1:0916:10+1:092m14501.350213mSRVellore 632007, Tamil Nadu
44JTJJolarpettai Junction (5)X  17:50+4017:55+395m--4585.272405mSRJolarpettai, Tamil Nadu
45SASalem Junction (6)  19:35+5019:40+515m--4705.467283mSRSalem, Tamil Nadu
46EDErode Junction (4)  20:35+5720:40+1:005m24766.870175mSRErode ph.no: 0424-2256111, Tamil Nadu
47TUPTiruppur (2)X  21:23+5621:25+572m14817.047305mSRTiruppur. Ph:0421-2200450, Tamil Nadu
48CBECoimbatore Main Junction (6)X  22:30+5222:35+545m--4867.438416mSRCoimbatore 641001, Tamil Nadu
49PGTPalakkad Junction (4)  00:02+5000:05+543m--5922.77384mSRPalghat Tel: 0491 2555231, Kerala
50TCRThrissur (4)  01:07+1:0901:10+1:083m15998.6626mSRThrissur Tel: 0487 2423150, Kerala
51AWYAluva (3)  02:03+4602:05+462m151053.23412mSRPh: 0484-2624141, Kerala
52ERNErnakulam Town (North) (2)  02:35+2902:40+305m251070.0609mSRTel: 0484 2395198, Kerala
53KTYMKottayam (3)  03:40+1:1903:45+1:195m--51130.05315mSRTel: 0481 2563535, Kerala
54CNGRChengannur (3)  04:24+1:2104:25+1:221m151164.7496mSRPh: 0479-2452340, Kerala
55QLNKollam Junction (6)O  05:40+3605:45+365m151225.84816mSRKollam 0474-2746194, Kerala
56TVCTrivandrum Central (5)  07:05+2707:15+2610m151290.43312mSRThiruvananthapuram 695001, Kerala
57NCJNagercoil Junction (4)  09:25+4209:30+445m--51361.43122mSRNagercoil-629002, Tamil Nadu
58CAPE•Kanniyakumari (3)•  10:00+38---51377.0-38mSRKanyakumari, Tamil Nadu
Scroll to Top
Scroll to Bottom